Mukwonago, WI

9:18 AM CDT on October 23, 2014 (GMT -0500)
Lake Beulah-North (N9CXK) | Change Station
CLOSE
Current Station
Personal Weather Station
Location: East Troy, WI
Elevation: 835 ft
Nearby Weather Stations

Elev 835 ft 42.84 °N, 88.39 °W | Updated 8 seconds ago

Clear
Clear
40.3 °F
Feels Like 40 °F
N
0.0
Wind Variable Wind from SE
Gusts 1.0 mph

Today
High -- | Low -- °F
--% Chance of Precip.
Yesterday
High -- | Low -- °F
Precip. -- in
7:16 AM 5:58 PM
Waning Crescent, 0% visible
Pressure 30.19 in
Visibility 4.0 miles
Clouds Clear
Windchill 40 °F
Dew Point 36 °F
Humidity 85%
Rainfall 0.00 in
Snow Depth Not available.
UV 1 out of 12
Pollen .10 out of 12
Air Quality Not available.
Flu Activity Sporadic
METAR KBUU 231355Z AUTO 20004KT 4SM BR CLR 03/03 A3019 RMK AO2 T00330033

More Conditions Fewer Conditions

Pressure 30.19 in
Visibility 4.0 miles
Clouds Clear
Windchill 40 °F
Dew Point 36 °F
Humidity 85%
Rainfall 0.00 in
Snow Depth Not available.
UV 1 out of 12
Pollen .10 out of 12
Air Quality Not available.
Flu Activity Sporadic
METAR KBUU 231355Z AUTO 20004KT 4SM BR CLR 03/03 A3019 RMK AO2 T00330033

More Conditions Fewer Conditions

10-Day Weather Forecast

Almanac

Astronomy

Oct. 23, 2014 Rise Set
Actual Time 7:16 AM CDT 5:58 PM CDT
Civil Twilight 6:47 AM CDT 6:27 PM CDT
Nautical Twilight 6:14 AM CDT 7:00 PM CDT
Astronomical Twilight 5:41 AM CDT 7:33 PM CDT
Moon 6:55 AM CDT 5:59 PM CDT
Length of Visible Light 11h 39m
Length of Day
10h 41m
Tomorrow will be 2m 43s shorter.
Waning Crescent, 0% of the Moon is Illuminated
Today
Waning Crescent
Oct 23
New
Oct 30
First Quarter
Nov 6
Full
Nov 14
Last Quarter

Today's Extremes

State Highs State Lows

Community

WunderPhotos

Upload Photos

1,764,256 photos uploaded!

Nearby

Snow Depth

Station Depth Elevation
No new snow has been reported.

Earthquake Activity

City Distance Mag. Time & Date
No recent earthquake activity has been reported nearby.
Minimum magnitude displayed is 2.5.

Coastal Water Temperatures

Place Temperature
No Stations Reporting

Nearby Weather Stations